sensor_id;sensor_type;location;lat;lon;timestamp;P1;durP1;ratioP1;P2;durP2;ratioP2
6999;SDS011;3540;53.242;10.408;2024-02-14T00:01:03;4.00;;;2.30;;
6999;SDS011;3540;53.242;10.408;2024-02-14T00:03:29;4.27;;;2.10;;
6999;SDS011;3540;53.242;10.408;2024-02-14T00:05:54;3.00;;;1.87;;
6999;SDS011;3540;53.242;10.408;2024-02-14T00:08:22;4.73;;;2.20;;
6999;SDS011;3540;53.242;10.408;2024-02-14T00:10:48;6.50;;;2.50;;
6999;SDS011;3540;53.242;10.408;2024-02-14T00:13:13;4.53;;;2.03;;
6999;SDS011;3540;53.242;10.408;2024-02-14T00:15:39;7.10;;;2.10;;
6999;SDS011;3540;53.242;10.408;2024-02-14T00:18:05;4.70;;;2.73;;
6999;SDS011;3540;53.242;10.408;2024-02-14T00:20:31;7.67;;;3.40;;
6999;SDS011;3540;53.242;10.408;2024-02-14T00:22:57;6.97;;;3.93;;
6999;SDS011;3540;53.242;10.408;2024-02-14T00:25:23;3.03;;;2.20;;
6999;SDS011;3540;53.242;10.408;2024-02-14T00:27:48;8.77;;;2.40;;
6999;SDS011;3540;53.242;10.408;2024-02-14T00:30:15;6.70;;;2.33;;
6999;SDS011;3540;53.242;10.408;2024-02-14T00:32:40;7.17;;;2.43;;
6999;SDS011;3540;53.242;10.408;2024-02-14T00:35:06;4.43;;;2.10;;
6999;SDS011;3540;53.242;10.408;2024-02-14T00:37:32;4.13;;;2.00;;
6999;SDS011;3540;53.242;10.408;2024-02-14T00:39:59;4.33;;;2.10;;
6999;SDS011;3540;53.242;10.408;2024-02-14T00:42:24;3.57;;;2.13;;
6999;SDS011;3540;53.242;10.408;2024-02-14T00:44:50;4.30;;;1.97;;
6999;SDS011;3540;53.242;10.408;2024-02-14T00:47:16;3.43;;;1.80;;
6999;SDS011;3540;53.242;10.408;2024-02-14T00:49:42;3.80;;;1.80;;
6999;SDS011;3540;53.242;10.408;2024-02-14T00:52:08;2.87;;;2.00;;
6999;SDS011;3540;53.242;10.408;2024-02-14T00:54:34;6.67;;;2.20;;
6999;SDS011;3540;53.242;10.408;2024-02-14T00:57:00;8.10;;;2.30;;
6999;SDS011;3540;53.242;10.408;2024-02-14T00:59:26;6.07;;;3.27;;
6999;SDS011;3540;53.242;10.408;2024-02-14T01:01:51;2.97;;;2.30;;
6999;SDS011;3540;53.242;10.408;2024-02-14T01:04:17;2.93;;;1.93;;
6999;SDS011;3540;53.242;10.408;2024-02-14T01:06:43;6.17;;;3.10;;
6999;SDS011;3540;53.242;10.408;2024-02-14T01:09:09;4.13;;;2.30;;
6999;SDS011;3540;53.242;10.408;2024-02-14T01:11:34;2.53;;;1.97;;
6999;SDS011;3540;53.242;10.408;2024-02-14T01:14:03;4.50;;;2.00;;
6999;SDS011;3540;53.242;10.408;2024-02-14T01:16:29;4.00;;;1.90;;
6999;SDS011;3540;53.242;10.408;2024-02-14T01:18:54;2.87;;;1.80;;
6999;SDS011;3540;53.242;10.408;2024-02-14T01:21:20;2.67;;;1.80;;
6999;SDS011;3540;53.242;10.408;2024-02-14T01:23:46;4.33;;;2.27;;
6999;SDS011;3540;53.242;10.408;2024-02-14T01:26:11;4.70;;;2.20;;
6999;SDS011;3540;53.242;10.408;2024-02-14T01:28:37;3.63;;;1.70;;
6999;SDS011;3540;53.242;10.408;2024-02-14T01:31:03;4.57;;;2.13;;
6999;SDS011;3540;53.242;10.408;2024-02-14T01:33:28;5.03;;;2.00;;
6999;SDS011;3540;53.242;10.408;2024-02-14T01:35:55;3.83;;;2.07;;
6999;SDS011;3540;53.242;10.408;2024-02-14T01:38:22;2.93;;;2.33;;
6999;SDS011;3540;53.242;10.408;2024-02-14T01:40:48;5.13;;;1.93;;
6999;SDS011;3540;53.242;10.408;2024-02-14T01:43:14;4.63;;;2.20;;
6999;SDS011;3540;53.242;10.408;2024-02-14T01:45:39;3.77;;;2.20;;
6999;SDS011;3540;53.242;10.408;2024-02-14T01:48:05;5.73;;;2.17;;
6999;SDS011;3540;53.242;10.408;2024-02-14T01:50:33;3.33;;;2.00;;
6999;SDS011;3540;53.242;10.408;2024-02-14T01:53:00;8.50;;;3.70;;
6999;SDS011;3540;53.242;10.408;2024-02-14T01:55:27;3.00;;;2.17;;
6999;SDS011;3540;53.242;10.408;2024-02-14T01:57:54;5.07;;;2.67;;
6999;SDS011;3540;53.242;10.408;2024-02-14T02:00:20;4.97;;;2.60;;
6999;SDS011;3540;53.242;10.408;2024-02-14T02:02:46;4.73;;;2.27;;
6999;SDS011;3540;53.242;10.408;2024-02-14T02:05:14;3.37;;;1.90;;
6999;SDS011;3540;53.242;10.408;2024-02-14T02:07:41;4.73;;;2.30;;
6999;SDS011;3540;53.242;10.408;2024-02-14T02:10:09;4.40;;;2.10;;
6999;SDS011;3540;53.242;10.408;2024-02-14T02:12:36;5.50;;;2.53;;
6999;SDS011;3540;53.242;10.408;2024-02-14T02:15:04;4.67;;;2.10;;
6999;SDS011;3540;53.242;10.408;2024-02-14T02:17:31;3.43;;;2.20;;
6999;SDS011;3540;53.242;10.408;2024-02-14T02:19:59;10.30;;;3.30;;
6999;SDS011;3540;53.242;10.408;2024-02-14T02:22:25;3.27;;;2.30;;
6999;SDS011;3540;53.242;10.408;2024-02-14T02:24:51;3.90;;;2.20;;
6999;SDS011;3540;53.242;10.408;2024-02-14T02:27:16;3.87;;;2.30;;
6999;SDS011;3540;53.242;10.408;2024-02-14T02:29:42;2.90;;;2.27;;
6999;SDS011;3540;53.242;10.408;2024-02-14T02:32:08;3.70;;;2.40;;
6999;SDS011;3540;53.242;10.408;2024-02-14T02:34:35;5.87;;;2.50;;
6999;SDS011;3540;53.242;10.408;2024-02-14T02:37:04;5.17;;;2.63;;
6999;SDS011;3540;53.242;10.408;2024-02-14T02:39:32;6.13;;;2.60;;
6999;SDS011;3540;53.242;10.408;2024-02-14T02:41:58;3.53;;;2.40;;
6999;SDS011;3540;53.242;10.408;2024-02-14T02:44:24;7.27;;;2.57;;
6999;SDS011;3540;53.242;10.408;2024-02-14T02:46:50;3.47;;;2.70;;
6999;SDS011;3540;53.242;10.408;2024-02-14T02:49:16;5.57;;;2.70;;
6999;SDS011;3540;53.242;10.408;2024-02-14T02:51:41;4.77;;;2.37;;
6999;SDS011;3540;53.242;10.408;2024-02-14T02:54:07;4.40;;;2.60;;
6999;SDS011;3540;53.242;10.408;2024-02-14T02:56:33;5.13;;;2.80;;
6999;SDS011;3540;53.242;10.408;2024-02-14T02:58:59;3.37;;;2.57;;
6999;SDS011;3540;53.242;10.408;2024-02-14T03:01:27;7.00;;;2.73;;
6999;SDS011;3540;53.242;10.408;2024-02-14T03:03:56;6.70;;;2.83;;
6999;SDS011;3540;53.242;10.408;2024-02-14T03:06:23;5.07;;;2.60;;
6999;SDS011;3540;53.242;10.408;2024-02-14T03:08:49;3.97;;;2.50;;
6999;SDS011;3540;53.242;10.408;2024-02-14T03:11:17;4.87;;;2.57;;
6999;SDS011;3540;53.242;10.408;2024-02-14T03:13:42;4.30;;;2.80;;
6999;SDS011;3540;53.242;10.408;2024-02-14T03:16:09;5.43;;;2.70;;
6999;SDS011;3540;53.242;10.408;2024-02-14T03:18:36;5.63;;;2.70;;
6999;SDS011;3540;53.242;10.408;2024-02-14T03:21:03;6.63;;;2.83;;
6999;SDS011;3540;53.242;10.408;2024-02-14T03:23:31;3.80;;;2.77;;
6999;SDS011;3540;53.242;10.408;2024-02-14T03:25:57;7.97;;;3.10;;
6999;SDS011;3540;53.242;10.408;2024-02-14T03:28:22;6.50;;;2.97;;
6999;SDS011;3540;53.242;10.408;2024-02-14T03:30:48;5.90;;;2.73;;
6999;SDS011;3540;53.242;10.408;2024-02-14T03:33:14;3.27;;;2.60;;
6999;SDS011;3540;53.242;10.408;2024-02-14T03:35:40;7.23;;;3.20;;
6999;SDS011;3540;53.242;10.408;2024-02-14T03:38:06;6.47;;;2.97;;
6999;SDS011;3540;53.242;10.408;2024-02-14T03:40:33;4.23;;;2.73;;
6999;SDS011;3540;53.242;10.408;2024-02-14T03:43:00;6.40;;;3.00;;
6999;SDS011;3540;53.242;10.408;2024-02-14T03:45:27;5.23;;;2.87;;
6999;SDS011;3540;53.242;10.408;2024-02-14T03:47:54;5.33;;;3.00;;
6999;SDS011;3540;53.242;10.408;2024-02-14T03:50:21;5.90;;;2.87;;
6999;SDS011;3540;53.242;10.408;2024-02-14T03:52:47;6.67;;;3.00;;
6999;SDS011;3540;53.242;10.408;2024-02-14T03:55:13;6.33;;;3.23;;
6999;SDS011;3540;53.242;10.408;2024-02-14T03:57:42;5.40;;;3.53;;
6999;SDS011;3540;53.242;10.408;2024-02-14T04:00:10;6.50;;;2.97;;
6999;SDS011;3540;53.242;10.408;2024-02-14T04:02:37;5.20;;;3.00;;
6999;SDS011;3540;53.242;10.408;2024-02-14T04:05:02;5.30;;;3.57;;
6999;SDS011;3540;53.242;10.408;2024-02-14T04:07:28;6.10;;;3.23;;
6999;SDS011;3540;53.242;10.408;2024-02-14T04:09:54;9.33;;;3.23;;
6999;SDS011;3540;53.242;10.408;2024-02-14T04:12:20;5.90;;;3.60;;
6999;SDS011;3540;53.242;10.408;2024-02-14T04:14:46;5.33;;;2.83;;
6999;SDS011;3540;53.242;10.408;2024-02-14T04:17:12;6.47;;;3.10;;
6999;SDS011;3540;53.242;10.408;2024-02-14T04:19:38;5.30;;;3.10;;
6999;SDS011;3540;53.242;10.408;2024-02-14T04:22:04;5.87;;;3.33;;
6999;SDS011;3540;53.242;10.408;2024-02-14T04:24:32;4.00;;;3.07;;
6999;SDS011;3540;53.242;10.408;2024-02-14T04:26:59;7.73;;;3.50;;
6999;SDS011;3540;53.242;10.408;2024-02-14T04:29:27;8.40;;;3.23;;
6999;SDS011;3540;53.242;10.408;2024-02-14T04:31:55;9.70;;;3.33;;
6999;SDS011;3540;53.242;10.408;2024-02-14T04:34:21;8.37;;;3.20;;
6999;SDS011;3540;53.242;10.408;2024-02-14T04:36:47;6.40;;;3.07;;
6999;SDS011;3540;53.242;10.408;2024-02-14T04:39:12;5.57;;;3.27;;
6999;SDS011;3540;53.242;10.408;2024-02-14T04:41:38;6.03;;;3.27;;
6999;SDS011;3540;53.242;10.408;2024-02-14T04:44:04;6.53;;;3.40;;
6999;SDS011;3540;53.242;10.408;2024-02-14T04:46:33;8.47;;;4.10;;
6999;SDS011;3540;53.242;10.408;2024-02-14T04:49:00;9.17;;;3.70;;
6999;SDS011;3540;53.242;10.408;2024-02-14T04:51:28;7.63;;;3.53;;
6999;SDS011;3540;53.242;10.408;2024-02-14T04:53:57;10.13;;;3.57;;
6999;SDS011;3540;53.242;10.408;2024-02-14T04:56:26;5.30;;;3.50;;
6999;SDS011;3540;53.242;10.408;2024-02-14T04:58:55;6.40;;;3.27;;
6999;SDS011;3540;53.242;10.408;2024-02-14T05:01:20;8.13;;;3.60;;
6999;SDS011;3540;53.242;10.408;2024-02-14T05:03:46;6.07;;;3.00;;
6999;SDS011;3540;53.242;10.408;2024-02-14T05:06:13;5.33;;;3.33;;
6999;SDS011;3540;53.242;10.408;2024-02-14T05:08:39;4.50;;;3.40;;
6999;SDS011;3540;53.242;10.408;2024-02-14T05:11:04;5.73;;;3.40;;
6999;SDS011;3540;53.242;10.408;2024-02-14T05:13:30;7.07;;;3.97;;
6999;SDS011;3540;53.242;10.408;2024-02-14T05:15:56;8.73;;;4.20;;
6999;SDS011;3540;53.242;10.408;2024-02-14T05:18:22;7.77;;;3.70;;
6999;SDS011;3540;53.242;10.408;2024-02-14T05:20:47;12.90;;;3.93;;
6999;SDS011;3540;53.242;10.408;2024-02-14T05:23:14;7.40;;;3.93;;
6999;SDS011;3540;53.242;10.408;2024-02-14T05:25:42;7.93;;;4.10;;
6999;SDS011;3540;53.242;10.408;2024-02-14T05:28:08;10.77;;;3.97;;
6999;SDS011;3540;53.242;10.408;2024-02-14T05:30:38;7.97;;;3.77;;
6999;SDS011;3540;53.242;10.408;2024-02-14T05:33:04;7.60;;;4.40;;
6999;SDS011;3540;53.242;10.408;2024-02-14T05:35:30;8.80;;;4.47;;
6999;SDS011;3540;53.242;10.408;2024-02-14T05:37:55;6.30;;;4.47;;
6999;SDS011;3540;53.242;10.408;2024-02-14T05:40:21;5.83;;;4.20;;
6999;SDS011;3540;53.242;10.408;2024-02-14T05:42:47;5.43;;;4.40;;
6999;SDS011;3540;53.242;10.408;2024-02-14T05:45:12;10.90;;;5.40;;
6999;SDS011;3540;53.242;10.408;2024-02-14T05:47:38;8.40;;;4.77;;
6999;SDS011;3540;53.242;10.408;2024-02-14T05:50:04;6.47;;;4.50;;
6999;SDS011;3540;53.242;10.408;2024-02-14T05:52:30;7.40;;;4.63;;
6999;SDS011;3540;53.242;10.408;2024-02-14T05:54:56;8.80;;;4.87;;
6999;SDS011;3540;53.242;10.408;2024-02-14T05:57:22;12.77;;;4.93;;
6999;SDS011;3540;53.242;10.408;2024-02-14T05:59:48;9.13;;;5.27;;
6999;SDS011;3540;53.242;10.408;2024-02-14T06:02:13;10.03;;;5.30;;
6999;SDS011;3540;53.242;10.408;2024-02-14T06:04:39;10.10;;;5.17;;
6999;SDS011;3540;53.242;10.408;2024-02-14T06:07:04;8.17;;;4.93;;
6999;SDS011;3540;53.242;10.408;2024-02-14T06:09:32;7.00;;;5.13;;
6999;SDS011;3540;53.242;10.408;2024-02-14T06:11:57;7.63;;;5.00;;
6999;SDS011;3540;53.242;10.408;2024-02-14T06:14:23;8.67;;;4.93;;
6999;SDS011;3540;53.242;10.408;2024-02-14T06:16:48;10.23;;;4.60;;
6999;SDS011;3540;53.242;10.408;2024-02-14T06:19:14;6.87;;;5.13;;
6999;SDS011;3540;53.242;10.408;2024-02-14T06:21:40;7.47;;;4.97;;
6999;SDS011;3540;53.242;10.408;2024-02-14T06:24:05;8.33;;;4.83;;
6999;SDS011;3540;53.242;10.408;2024-02-14T06:26:31;8.57;;;5.33;;
6999;SDS011;3540;53.242;10.408;2024-02-14T06:28:58;9.60;;;5.57;;
6999;SDS011;3540;53.242;10.408;2024-02-14T06:31:23;10.13;;;5.77;;
6999;SDS011;3540;53.242;10.408;2024-02-14T06:33:49;7.70;;;5.30;;
6999;SDS011;3540;53.242;10.408;2024-02-14T06:36:15;8.67;;;5.60;;
6999;SDS011;3540;53.242;10.408;2024-02-14T06:38:40;9.00;;;5.63;;
6999;SDS011;3540;53.242;10.408;2024-02-14T06:41:06;8.37;;;6.13;;
6999;SDS011;3540;53.242;10.408;2024-02-14T06:43:32;8.33;;;5.37;;
6999;SDS011;3540;53.242;10.408;2024-02-14T06:45:57;8.13;;;5.33;;
6999;SDS011;3540;53.242;10.408;2024-02-14T06:48:23;9.30;;;5.73;;
6999;SDS011;3540;53.242;10.408;2024-02-14T06:50:52;8.87;;;5.63;;
6999;SDS011;3540;53.242;10.408;2024-02-14T06:53:18;8.40;;;5.90;;
6999;SDS011;3540;53.242;10.408;2024-02-14T06:55:43;9.43;;;5.73;;
6999;SDS011;3540;53.242;10.408;2024-02-14T06:58:09;9.10;;;5.93;;
6999;SDS011;3540;53.242;10.408;2024-02-14T07:00:35;7.27;;;5.60;;
6999;SDS011;3540;53.242;10.408;2024-02-14T07:03:00;9.20;;;5.77;;
6999;SDS011;3540;53.242;10.408;2024-02-14T07:05:26;10.27;;;6.03;;
6999;SDS011;3540;53.242;10.408;2024-02-14T07:07:54;8.13;;;5.77;;
6999;SDS011;3540;53.242;10.408;2024-02-14T07:10:20;9.80;;;6.10;;
6999;SDS011;3540;53.242;10.408;2024-02-14T07:12:46;9.67;;;5.80;;
6999;SDS011;3540;53.242;10.408;2024-02-14T07:15:12;6.90;;;5.60;;
6999;SDS011;3540;53.242;10.408;2024-02-14T07:17:37;10.20;;;6.40;;
6999;SDS011;3540;53.242;10.408;2024-02-14T07:20:06;11.40;;;6.03;;
6999;SDS011;3540;53.242;10.408;2024-02-14T07:22:35;7.93;;;5.87;;
6999;SDS011;3540;53.242;10.408;2024-02-14T07:25:01;8.97;;;6.07;;
6999;SDS011;3540;53.242;10.408;2024-02-14T07:27:27;12.93;;;6.23;;
6999;SDS011;3540;53.242;10.408;2024-02-14T07:29:53;9.23;;;6.20;;
6999;SDS011;3540;53.242;10.408;2024-02-14T07:32:18;9.87;;;5.97;;
6999;SDS011;3540;53.242;10.408;2024-02-14T07:34:44;9.40;;;6.40;;
6999;SDS011;3540;53.242;10.408;2024-02-14T07:37:11;10.03;;;6.17;;
6999;SDS011;3540;53.242;10.408;2024-02-14T07:39:36;10.23;;;5.90;;
6999;SDS011;3540;53.242;10.408;2024-02-14T07:42:02;8.87;;;6.10;;
6999;SDS011;3540;53.242;10.408;2024-02-14T07:44:29;8.13;;;5.70;;
6999;SDS011;3540;53.242;10.408;2024-02-14T07:46:56;7.00;;;5.77;;
6999;SDS011;3540;53.242;10.408;2024-02-14T07:49:21;10.27;;;6.60;;
6999;SDS011;3540;53.242;10.408;2024-02-14T07:51:47;8.80;;;5.50;;
6999;SDS011;3540;53.242;10.408;2024-02-14T07:54:13;8.87;;;6.13;;
6999;SDS011;3540;53.242;10.408;2024-02-14T07:56:39;7.40;;;5.30;;
6999;SDS011;3540;53.242;10.408;2024-02-14T07:59:04;9.63;;;6.10;;
6999;SDS011;3540;53.242;10.408;2024-02-14T08:01:30;10.60;;;6.67;;
6999;SDS011;3540;53.242;10.408;2024-02-14T08:03:57;6.77;;;5.50;;
6999;SDS011;3540;53.242;10.408;2024-02-14T08:06:23;8.33;;;5.70;;
6999;SDS011;3540;53.242;10.408;2024-02-14T08:08:49;9.60;;;5.80;;
6999;SDS011;3540;53.242;10.408;2024-02-14T08:11:18;8.10;;;5.40;;
6999;SDS011;3540;53.242;10.408;2024-02-14T08:13:45;9.53;;;5.77;;
6999;SDS011;3540;53.242;10.408;2024-02-14T08:16:10;7.17;;;5.50;;
6999;SDS011;3540;53.242;10.408;2024-02-14T08:18:36;9.03;;;5.90;;
6999;SDS011;3540;53.242;10.408;2024-02-14T08:21:04;8.87;;;5.57;;
6999;SDS011;3540;53.242;10.408;2024-02-14T08:23:33;8.77;;;5.67;;
6999;SDS011;3540;53.242;10.408;2024-02-14T08:25:59;7.23;;;5.50;;
6999;SDS011;3540;53.242;10.408;2024-02-14T08:28:25;8.93;;;6.23;;
6999;SDS011;3540;53.242;10.408;2024-02-14T08:30:51;7.57;;;5.70;;
6999;SDS011;3540;53.242;10.408;2024-02-14T08:33:17;7.40;;;4.90;;
6999;SDS011;3540;53.242;10.408;2024-02-14T08:35:42;7.37;;;5.17;;
6999;SDS011;3540;53.242;10.408;2024-02-14T08:38:08;8.57;;;5.40;;
6999;SDS011;3540;53.242;10.408;2024-02-14T08:40:34;7.07;;;5.20;;
6999;SDS011;3540;53.242;10.408;2024-02-14T08:42:59;8.17;;;5.00;;
6999;SDS011;3540;53.242;10.408;2024-02-14T08:45:25;8.60;;;4.50;;
6999;SDS011;3540;53.242;10.408;2024-02-14T08:47:54;5.40;;;4.50;;
6999;SDS011;3540;53.242;10.408;2024-02-14T08:50:20;6.07;;;4.53;;
6999;SDS011;3540;53.242;10.408;2024-02-14T08:52:46;5.30;;;4.30;;
6999;SDS011;3540;53.242;10.408;2024-02-14T08:55:11;6.37;;;4.23;;
6999;SDS011;3540;53.242;10.408;2024-02-14T08:57:42;4.70;;;4.00;;
6999;SDS011;3540;53.242;10.408;2024-02-14T09:00:08;4.73;;;4.17;;
6999;SDS011;3540;53.242;10.408;2024-02-14T09:02:35;4.60;;;3.70;;
6999;SDS011;3540;53.242;10.408;2024-02-14T09:05:01;4.97;;;3.73;;
6999;SDS011;3540;53.242;10.408;2024-02-14T09:07:29;3.53;;;3.10;;
6999;SDS011;3540;53.242;10.408;2024-02-14T09:09:56;3.23;;;2.90;;
6999;SDS011;3540;53.242;10.408;2024-02-14T09:12:22;3.93;;;3.07;;
6999;SDS011;3540;53.242;10.408;2024-02-14T09:14:48;3.00;;;2.70;;
6999;SDS011;3540;53.242;10.408;2024-02-14T09:17:14;3.30;;;2.90;;
6999;SDS011;3540;53.242;10.408;2024-02-14T09:19:40;3.10;;;2.70;;
6999;SDS011;3540;53.242;10.408;2024-02-14T09:22:06;3.17;;;2.83;;
6999;SDS011;3540;53.242;10.408;2024-02-14T09:24:32;3.27;;;2.97;;
6999;SDS011;3540;53.242;10.408;2024-02-14T09:26:58;7.40;;;3.00;;
6999;SDS011;3540;53.242;10.408;2024-02-14T09:29:24;3.93;;;3.53;;
6999;SDS011;3540;53.242;10.408;2024-02-14T09:31:50;4.23;;;3.00;;
6999;SDS011;3540;53.242;10.408;2024-02-14T09:34:16;2.87;;;2.63;;
6999;SDS011;3540;53.242;10.408;2024-02-14T09:36:44;2.93;;;2.30;;
6999;SDS011;3540;53.242;10.408;2024-02-14T09:39:10;2.20;;;2.00;;
6999;SDS011;3540;53.242;10.408;2024-02-14T09:44:02;1.90;;;1.80;;
6999;SDS011;3540;53.242;10.408;2024-02-14T09:46:28;3.30;;;2.10;;
6999;SDS011;3540;53.242;10.408;2024-02-14T09:48:55;2.00;;;1.90;;
6999;SDS011;3540;53.242;10.408;2024-02-14T09:51:24;2.90;;;2.00;;
6999;SDS011;3540;53.242;10.408;2024-02-14T09:53:50;2.07;;;1.90;;
6999;SDS011;3540;53.242;10.408;2024-02-14T09:56:19;1.97;;;1.83;;
6999;SDS011;3540;53.242;10.408;2024-02-14T09:58:47;2.00;;;1.80;;
6999;SDS011;3540;53.242;10.408;2024-02-14T10:01:20;2.20;;;2.00;;
6999;SDS011;3540;53.242;10.408;2024-02-14T10:03:49;3.27;;;2.00;;
6999;SDS011;3540;53.242;10.408;2024-02-14T10:06:15;2.10;;;2.00;;
6999;SDS011;3540;53.242;10.408;2024-02-14T10:08:42;1.90;;;1.70;;
6999;SDS011;3540;53.242;10.408;2024-02-14T10:11:08;1.87;;;1.60;;
6999;SDS011;3540;53.242;10.408;2024-02-14T10:13:35;1.77;;;1.60;;
6999;SDS011;3540;53.242;10.408;2024-02-14T10:16:01;2.13;;;1.83;;
6999;SDS011;3540;53.242;10.408;2024-02-14T10:18:27;2.03;;;1.83;;
6999;SDS011;3540;53.242;10.408;2024-02-14T10:20:57;2.13;;;1.60;;
6999;SDS011;3540;53.242;10.408;2024-02-14T10:23:23;2.10;;;1.90;;
6999;SDS011;3540;53.242;10.408;2024-02-14T10:25:55;1.80;;;1.70;;
6999;SDS011;3540;53.242;10.408;2024-02-14T10:28:21;2.90;;;1.83;;
6999;SDS011;3540;53.242;10.408;2024-02-14T10:30:48;1.90;;;1.60;;
6999;SDS011;3540;53.242;10.408;2024-02-14T10:33:17;1.80;;;1.70;;
6999;SDS011;3540;53.242;10.408;2024-02-14T10:35:44;1.70;;;1.60;;
6999;SDS011;3540;53.242;10.408;2024-02-14T10:38:11;2.17;;;1.97;;
6999;SDS011;3540;53.242;10.408;2024-02-14T10:40:37;1.97;;;1.80;;
6999;SDS011;3540;53.242;10.408;2024-02-14T10:43:07;1.97;;;1.73;;
6999;SDS011;3540;53.242;10.408;2024-02-14T10:45:36;3.00;;;1.93;;
6999;SDS011;3540;53.242;10.408;2024-02-14T10:48:02;2.07;;;1.97;;
6999;SDS011;3540;53.242;10.408;2024-02-14T10:50:32;2.30;;;1.83;;
6999;SDS011;3540;53.242;10.408;2024-02-14T10:53:00;3.43;;;2.30;;
6999;SDS011;3540;53.242;10.408;2024-02-14T10:55:31;2.93;;;2.30;;
6999;SDS011;3540;53.242;10.408;2024-02-14T10:57:59;2.13;;;1.90;;
6999;SDS011;3540;53.242;10.408;2024-02-14T11:00:25;2.30;;;2.10;;
6999;SDS011;3540;53.242;10.408;2024-02-14T11:02:51;2.87;;;2.30;;
6999;SDS011;3540;53.242;10.408;2024-02-14T11:05:18;3.00;;;2.30;;
6999;SDS011;3540;53.242;10.408;2024-02-14T11:07:48;2.70;;;2.50;;
6999;SDS011;3540;53.242;10.408;2024-02-14T11:10:18;3.00;;;2.40;;
6999;SDS011;3540;53.242;10.408;2024-02-14T11:12:46;2.77;;;2.40;;
6999;SDS011;3540;53.242;10.408;2024-02-14T11:15:21;2.57;;;2.37;;
6999;SDS011;3540;53.242;10.408;2024-02-14T11:17:49;3.03;;;2.73;;
6999;SDS011;3540;53.242;10.408;2024-02-14T11:23:05;2.80;;;2.60;;
6999;SDS011;3540;53.242;10.408;2024-02-14T11:25:36;3.07;;;2.60;;
6999;SDS011;3540;53.242;10.408;2024-02-14T11:28:14;3.53;;;2.77;;
6999;SDS011;3540;53.242;10.408;2024-02-14T11:30:41;2.97;;;2.67;;
6999;SDS011;3540;53.242;10.408;2024-02-14T11:35:44;2.70;;;2.50;;
6999;SDS011;3540;53.242;10.408;2024-02-14T11:38:16;3.03;;;2.50;;
6999;SDS011;3540;53.242;10.408;2024-02-14T11:40:42;2.53;;;2.33;;
6999;SDS011;3540;53.242;10.408;2024-02-14T11:43:12;2.83;;;2.63;;
6999;SDS011;3540;53.242;10.408;2024-02-14T11:45:39;2.80;;;2.50;;
6999;SDS011;3540;53.242;10.408;2024-02-14T11:48:10;3.07;;;2.53;;
6999;SDS011;3540;53.242;10.408;2024-02-14T11:50:38;3.40;;;2.73;;
6999;SDS011;3540;53.242;10.408;2024-02-14T11:53:05;3.43;;;2.70;;
6999;SDS011;3540;53.242;10.408;2024-02-14T11:55:34;2.70;;;2.50;;
6999;SDS011;3540;53.242;10.408;2024-02-14T11:58:01;3.17;;;2.87;;
6999;SDS011;3540;53.242;10.408;2024-02-14T12:00:27;6.73;;;3.80;;
6999;SDS011;3540;53.242;10.408;2024-02-14T12:02:53;5.00;;;2.90;;
6999;SDS011;3540;53.242;10.408;2024-02-14T12:05:19;4.23;;;3.10;;
6999;SDS011;3540;53.242;10.408;2024-02-14T12:07:45;3.57;;;3.27;;
6999;SDS011;3540;53.242;10.408;2024-02-14T12:10:11;4.30;;;3.90;;
6999;SDS011;3540;53.242;10.408;2024-02-14T12:12:38;4.30;;;3.90;;
6999;SDS011;3540;53.242;10.408;2024-02-14T12:15:04;4.30;;;3.83;;
6999;SDS011;3540;53.242;10.408;2024-02-14T12:17:31;6.43;;;4.90;;
6999;SDS011;3540;53.242;10.408;2024-02-14T12:20:09;5.87;;;4.50;;
6999;SDS011;3540;53.242;10.408;2024-02-14T12:22:38;5.50;;;4.80;;
6999;SDS011;3540;53.242;10.408;2024-02-14T12:25:05;5.80;;;5.20;;
6999;SDS011;3540;53.242;10.408;2024-02-14T12:27:36;6.10;;;5.30;;
6999;SDS011;3540;53.242;10.408;2024-02-14T12:30:08;5.53;;;5.00;;
6999;SDS011;3540;53.242;10.408;2024-02-14T12:32:35;6.20;;;5.60;;
6999;SDS011;3540;53.242;10.408;2024-02-14T12:35:00;13.00;;;5.77;;
6999;SDS011;3540;53.242;10.408;2024-02-14T12:37:26;6.60;;;5.50;;
6999;SDS011;3540;53.242;10.408;2024-02-14T12:39:52;7.43;;;6.30;;
6999;SDS011;3540;53.242;10.408;2024-02-14T12:42:18;15.80;;;7.10;;
6999;SDS011;3540;53.242;10.408;2024-02-14T12:44:50;8.07;;;6.70;;
6999;SDS011;3540;53.242;10.408;2024-02-14T12:47:16;8.07;;;6.40;;
6999;SDS011;3540;53.242;10.408;2024-02-14T12:49:43;10.73;;;6.90;;
6999;SDS011;3540;53.242;10.408;2024-02-14T12:52:08;11.20;;;6.80;;
6999;SDS011;3540;53.242;10.408;2024-02-14T12:54:34;9.93;;;6.93;;
6999;SDS011;3540;53.242;10.408;2024-02-14T12:56:59;6.93;;;6.23;;
6999;SDS011;3540;53.242;10.408;2024-02-14T12:59:26;7.60;;;6.70;;
6999;SDS011;3540;53.242;10.408;2024-02-14T13:01:51;7.40;;;6.03;;
6999;SDS011;3540;53.242;10.408;2024-02-14T13:04:17;8.20;;;7.00;;
6999;SDS011;3540;53.242;10.408;2024-02-14T13:06:42;9.93;;;6.27;;
6999;SDS011;3540;53.242;10.408;2024-02-14T13:09:08;7.47;;;6.00;;
6999;SDS011;3540;53.242;10.408;2024-02-14T13:11:35;9.03;;;7.07;;
6999;SDS011;3540;53.242;10.408;2024-02-14T13:14:01;7.53;;;5.97;;
6999;SDS011;3540;53.242;10.408;2024-02-14T13:16:29;6.20;;;5.40;;
6999;SDS011;3540;53.242;10.408;2024-02-14T13:18:54;6.43;;;5.10;;
6999;SDS011;3540;53.242;10.408;2024-02-14T13:21:21;5.50;;;5.00;;
6999;SDS011;3540;53.242;10.408;2024-02-14T13:23:47;6.93;;;4.67;;
6999;SDS011;3540;53.242;10.408;2024-02-14T13:26:12;6.07;;;5.00;;
6999;SDS011;3540;53.242;10.408;2024-02-14T13:28:39;6.37;;;4.80;;
6999;SDS011;3540;53.242;10.408;2024-02-14T13:31:05;5.10;;;4.60;;
6999;SDS011;3540;53.242;10.408;2024-02-14T13:33:31;5.93;;;4.50;;
6999;SDS011;3540;53.242;10.408;2024-02-14T13:35:57;5.13;;;4.60;;
6999;SDS011;3540;53.242;10.408;2024-02-14T13:38:23;5.27;;;4.70;;
6999;SDS011;3540;53.242;10.408;2024-02-14T13:40:49;5.03;;;4.57;;
6999;SDS011;3540;53.242;10.408;2024-02-14T13:43:14;5.73;;;5.20;;
6999;SDS011;3540;53.242;10.408;2024-02-14T13:45:42;5.43;;;4.93;;
6999;SDS011;3540;53.242;10.408;2024-02-14T13:48:09;5.10;;;4.47;;
6999;SDS011;3540;53.242;10.408;2024-02-14T13:50:35;5.10;;;4.60;;
6999;SDS011;3540;53.242;10.408;2024-02-14T13:53:01;4.63;;;4.23;;
6999;SDS011;3540;53.242;10.408;2024-02-14T13:55:28;4.93;;;4.53;;
6999;SDS011;3540;53.242;10.408;2024-02-14T13:57:54;5.60;;;4.77;;
6999;SDS011;3540;53.242;10.408;2024-02-14T14:00:19;7.57;;;4.80;;
6999;SDS011;3540;53.242;10.408;2024-02-14T14:02:45;5.53;;;4.90;;
6999;SDS011;3540;53.242;10.408;2024-02-14T14:05:11;6.00;;;5.40;;
6999;SDS011;3540;53.242;10.408;2024-02-14T14:07:38;6.60;;;5.00;;
6999;SDS011;3540;53.242;10.408;2024-02-14T14:10:05;4.90;;;4.47;;
6999;SDS011;3540;53.242;10.408;2024-02-14T14:12:31;5.43;;;4.93;;
6999;SDS011;3540;53.242;10.408;2024-02-14T14:14:57;5.63;;;5.03;;
6999;SDS011;3540;53.242;10.408;2024-02-14T14:17:23;6.03;;;5.43;;
6999;SDS011;3540;53.242;10.408;2024-02-14T14:19:49;5.70;;;5.10;;
6999;SDS011;3540;53.242;10.408;2024-02-14T14:22:15;6.17;;;5.30;;
6999;SDS011;3540;53.242;10.408;2024-02-14T14:24:41;5.80;;;5.20;;
6999;SDS011;3540;53.242;10.408;2024-02-14T14:27:07;6.07;;;5.47;;
6999;SDS011;3540;53.242;10.408;2024-02-14T14:29:42;6.43;;;5.30;;
6999;SDS011;3540;53.242;10.408;2024-02-14T14:32:09;8.67;;;5.50;;
6999;SDS011;3540;53.242;10.408;2024-02-14T14:34:35;6.50;;;5.53;;
6999;SDS011;3540;53.242;10.408;2024-02-14T14:37:00;6.63;;;5.57;;
6999;SDS011;3540;53.242;10.408;2024-02-14T14:39:26;5.87;;;5.37;;
6999;SDS011;3540;53.242;10.408;2024-02-14T14:41:52;6.67;;;6.00;;
6999;SDS011;3540;53.242;10.408;2024-02-14T14:44:23;7.03;;;6.00;;
6999;SDS011;3540;53.242;10.408;2024-02-14T14:46:50;6.40;;;5.57;;
6999;SDS011;3540;53.242;10.408;2024-02-14T14:49:16;6.90;;;6.20;;
6999;SDS011;3540;53.242;10.408;2024-02-14T14:51:41;6.77;;;6.10;;
6999;SDS011;3540;53.242;10.408;2024-02-14T14:54:07;6.80;;;6.20;;
6999;SDS011;3540;53.242;10.408;2024-02-14T14:56:33;7.07;;;6.37;;
6999;SDS011;3540;53.242;10.408;2024-02-14T14:58:59;7.23;;;6.50;;
6999;SDS011;3540;53.242;10.408;2024-02-14T15:01:28;6.90;;;6.30;;
6999;SDS011;3540;53.242;10.408;2024-02-14T15:03:54;9.27;;;7.03;;